MDT,Max TemperatureF,Mean TemperatureF,Min TemperatureF,Max Dew PointF,MeanDew PointF,Min DewpointF,Max Humidity, Mean Humidity, Min Humidity, Max Sea Level PressureIn, Mean Sea Level PressureIn, Min Sea Level PressureIn, Max VisibilityMiles, Mean VisibilityMiles, Min VisibilityMiles, Max Wind SpeedMPH, Mean Wind SpeedMPH, Max Gust SpeedMPH,PrecipitationIn, CloudCover, Events, WindDirDegrees
2013-8-1,92,75,57,60,57,52,80,56,32,30.18,29.95,29.79,10,10,7,41,14,53,0.02,1,Rain-Thunderstorm,196
2013-8-2,94,75,56,64,58,50,93,58,23,29.99,29.87,29.81,10,10,8,26,10,33,0.02,0,Rain,107
2013-8-3,69,64,58,66,65,59,100,94,87,30.25,30.11,29.93,9,4,0,32,14,39,0.07,7,Fog-Rain,140
2013-8-4,91,75,58,64,61,54,100,66,31,30.21,30.07,29.88,10,5,0,18,11,23,0.01,4,Fog,168
2013-8-5,90,73,56,63,58,52,93,62,31,29.94,29.89,29.85,10,10,10,21,9,25,0.00,0,,124
2013-8-6,91,76,60,59,54,48,84,54,23,30.10,29.86,29.80,10,10,10,15,10,20,0.00,0,Thunderstorm,12
2013-8-7,76,67,58,60,55,51,90,67,43,30.17,30.10,29.98,10,10,7,26,12,35,0.04,4,Rain-Thunderstorm,181
2013-8-8,80,67,53,61,56,50,100,73,45,30.15,30.05,29.97,10,9,4,18,8,23,0.00,5,,168
2013-8-9,84,67,49,54,49,43,86,56,26,30.12,30.07,30.04,10,10,10,21,9,26,0.00,0,,189
2013-8-10,90,73,56,59,53,46,93,58,23,30.22,30.07,29.96,10,10,5,28,14,36,0.10,1,Rain-Thunderstorm,182
2013-8-11,86,73,59,57,52,40,84,56,27,30.24,30.06,29.94,10,10,10,21,8,31,0.01,3,Rain-Thunderstorm,37
2013-8-12,84,71,57,63,56,50,93,64,34,30.23,30.11,30.01,10,8,0,20,6,25,T,3,Fog-Rain-Thunderstorm,57
2013-8-13,85,68,50,59,53,46,89,60,31,30.24,30.11,30.05,10,10,8,24,10,30,0.21,3,Rain-Thunderstorm,194
2013-8-14,85,70,55,59,53,43,100,64,27,30.28,30.07,29.96,10,9,3,32,6,39,0.04,2,Rain-Thunderstorm,242
2013-8-15,87,71,54,56,50,42,86,55,23,30.06,30.01,29.96,10,10,10,16,6,20,T,1,Rain,110
2013-8-16,82,70,57,61,59,55,97,70,43,30.21,30.10,30.01,10,6,0,15,9,20,0.00,4,Fog,143
2013-8-17,88,73,58,63,61,57,100,68,36,30.17,30.04,29.91,10,6,0,21,11,25,0.00,2,Fog,165
2013-8-18,91,76,61,65,62,55,100,68,36,30.20,29.99,29.89,10,6,0,21,10,30,0.18,3,Fog-Rain-Thunderstorm,161
2013-8-19,97,77,56,60,53,44,93,55,17,30.09,29.92,29.86,10,8,2,22,9,29,0.00,0,,182
2013-8-20,101,82,62,57,50,39,73,43,12,29.86,29.82,29.78,10,10,10,24,13,32,0.00,0,,193
2013-8-21,94,77,59,64,57,54,81,55,28,29.98,29.89,29.82,10,10,10,24,10,29,0.00,0,,14
2013-8-22,89,75,60,63,58,50,93,61,28,30.23,30.05,29.98,10,10,6,18,10,23,0.00,1,,47
2013-8-23,95,79,62,63,59,53,93,60,26,30.12,29.92,29.77,10,8,2,23,12,30,0.00,1,,157
2013-8-24,97,76,55,54,50,45,86,53,19,29.88,29.84,29.81,10,10,10,15,6,20,0.00,0,,249
2013-8-25,99,80,60,55,49,43,69,43,16,29.95,29.91,29.87,10,10,10,20,7,25,0.00,0,,226
2013-8-26,98,79,60,55,52,45,72,45,17,29.97,29.92,29.87,10,10,10,15,7,18,0.00,1,,350
2013-8-27,99,80,60,55,52,49,72,46,20,29.94,29.89,29.83,10,10,10,20,8,28,0.00,0,,353
2013-8-28,98,79,60,55,46,35,73,43,13,29.94,29.91,29.88,10,10,10,20,8,25,0.00,0,,144
2013-8-29,101,79,57,51,47,43,72,44,15,29.96,29.93,29.90,10,10,10,16,6,22,0.00,0,,347
2013-8-30,99,80,61,61,55,48,78,50,22,30.08,29.96,29.87,10,10,9,30,9,37,0.00,0,Thunderstorm,92
2013-8-31,99,79,59,59,53,42,90,53,15,29.97,29.89,29.81,10,10,10,25,11,32,0.00,0,,342